sensor_id;sensor_type;location;lat;lon;timestamp;P1;durP1;ratioP1;P2;durP2;ratioP2
21170;SDS011;10743;52.160;20.910;2022-08-01T00:00:13;44.15;;;13.50;;
21170;SDS011;10743;52.160;20.910;2022-08-01T00:02:40;34.55;;;12.40;;
21170;SDS011;10743;52.160;20.910;2022-08-01T00:05:08;27.88;;;10.20;;
21170;SDS011;10743;52.160;20.910;2022-08-01T00:07:37;12.02;;;5.40;;
21170;SDS011;10743;52.160;20.910;2022-08-01T00:10:04;9.95;;;4.53;;
21170;SDS011;10743;52.160;20.910;2022-08-01T00:12:34;21.90;;;8.10;;
21170;SDS011;10743;52.160;20.910;2022-08-01T00:15:02;12.93;;;5.10;;
21170;SDS011;10743;52.160;20.910;2022-08-01T00:17:34;8.15;;;4.70;;
21170;SDS011;10743;52.160;20.910;2022-08-01T00:20:02;10.15;;;3.72;;
21170;SDS011;10743;52.160;20.910;2022-08-01T00:22:32;18.63;;;5.60;;
21170;SDS011;10743;52.160;20.910;2022-08-01T00:25:00;21.50;;;8.10;;
21170;SDS011;10743;52.160;20.910;2022-08-01T00:27:28;17.10;;;6.15;;
21170;SDS011;10743;52.160;20.910;2022-08-01T00:29:55;14.60;;;4.50;;
21170;SDS011;10743;52.160;20.910;2022-08-01T00:32:39;8.02;;;3.55;;
21170;SDS011;10743;52.160;20.910;2022-08-01T00:35:07;9.35;;;4.28;;
21170;SDS011;10743;52.160;20.910;2022-08-01T00:37:35;9.57;;;4.25;;
21170;SDS011;10743;52.160;20.910;2022-08-01T00:40:02;7.40;;;4.78;;
21170;SDS011;10743;52.160;20.910;2022-08-01T00:42:30;16.23;;;5.75;;
21170;SDS011;10743;52.160;20.910;2022-08-01T00:44:57;17.67;;;6.40;;
21170;SDS011;10743;52.160;20.910;2022-08-01T00:47:24;23.48;;;8.32;;
21170;SDS011;10743;52.160;20.910;2022-08-01T00:49:51;16.75;;;6.25;;
21170;SDS011;10743;52.160;20.910;2022-08-01T00:52:18;11.07;;;5.80;;
21170;SDS011;10743;52.160;20.910;2022-08-01T00:54:45;11.68;;;5.18;;
21170;SDS011;10743;52.160;20.910;2022-08-01T00:57:12;16.48;;;6.97;;
21170;SDS011;10743;52.160;20.910;2022-08-01T00:59:40;17.38;;;6.95;;
21170;SDS011;10743;52.160;20.910;2022-08-01T01:02:08;13.60;;;6.10;;
21170;SDS011;10743;52.160;20.910;2022-08-01T01:04:41;21.08;;;9.90;;
21170;SDS011;10743;52.160;20.910;2022-08-01T01:12:37;24.13;;;8.88;;
21170;SDS011;10743;52.160;20.910;2022-08-01T01:18:04;22.08;;;8.55;;
21170;SDS011;10743;52.160;20.910;2022-08-01T01:20:42;30.63;;;10.45;;
21170;SDS011;10743;52.160;20.910;2022-08-01T01:23:21;19.00;;;7.47;;
21170;SDS011;10743;52.160;20.910;2022-08-01T01:26:39;18.38;;;6.65;;
21170;SDS011;10743;52.160;20.910;2022-08-01T01:29:35;23.65;;;7.40;;
21170;SDS011;10743;52.160;20.910;2022-08-01T01:35:21;18.80;;;6.35;;
21170;SDS011;10743;52.160;20.910;2022-08-01T01:37:54;14.38;;;4.82;;
21170;SDS011;10743;52.160;20.910;2022-08-01T01:40:28;25.83;;;7.70;;
21170;SDS011;10743;52.160;20.910;2022-08-01T01:42:57;27.73;;;8.77;;
21170;SDS011;10743;52.160;20.910;2022-08-01T01:45:24;20.20;;;6.22;;
21170;SDS011;10743;52.160;20.910;2022-08-01T01:47:52;19.20;;;6.10;;
21170;SDS011;10743;52.160;20.910;2022-08-01T01:50:21;16.58;;;6.68;;
21170;SDS011;10743;52.160;20.910;2022-08-01T01:52:49;16.27;;;6.55;;
21170;SDS011;10743;52.160;20.910;2022-08-01T01:55:18;14.27;;;6.25;;
21170;SDS011;10743;52.160;20.910;2022-08-01T01:57:48;19.08;;;6.60;;
21170;SDS011;10743;52.160;20.910;2022-08-01T02:00:18;17.33;;;6.55;;
21170;SDS011;10743;52.160;20.910;2022-08-01T02:02:45;16.30;;;6.93;;
21170;SDS011;10743;52.160;20.910;2022-08-01T02:05:13;28.77;;;9.35;;
21170;SDS011;10743;52.160;20.910;2022-08-01T02:07:41;29.55;;;10.68;;
21170;SDS011;10743;52.160;20.910;2022-08-01T02:10:10;17.15;;;6.68;;
21170;SDS011;10743;52.160;20.910;2022-08-01T02:12:39;29.27;;;9.05;;
21170;SDS011;10743;52.160;20.910;2022-08-01T02:15:08;16.13;;;6.43;;
21170;SDS011;10743;52.160;20.910;2022-08-01T02:17:39;11.65;;;4.70;;
21170;SDS011;10743;52.160;20.910;2022-08-01T02:20:11;12.85;;;5.00;;
21170;SDS011;10743;52.160;20.910;2022-08-01T02:22:40;10.88;;;4.88;;
21170;SDS011;10743;52.160;20.910;2022-08-01T02:25:21;12.25;;;5.40;;
21170;SDS011;10743;52.160;20.910;2022-08-01T02:27:59;10.50;;;4.65;;
21170;SDS011;10743;52.160;20.910;2022-08-01T02:30:35;10.55;;;4.63;;
21170;SDS011;10743;52.160;20.910;2022-08-01T02:33:06;11.80;;;5.25;;
21170;SDS011;10743;52.160;20.910;2022-08-01T02:35:44;5.60;;;3.50;;
21170;SDS011;10743;52.160;20.910;2022-08-01T02:38:44;8.82;;;4.45;;
21170;SDS011;10743;52.160;20.910;2022-08-01T02:41:13;7.68;;;4.45;;
21170;SDS011;10743;52.160;20.910;2022-08-01T02:43:47;7.40;;;4.00;;
21170;SDS011;10743;52.160;20.910;2022-08-01T02:46:30;8.40;;;3.70;;
21170;SDS011;10743;52.160;20.910;2022-08-01T02:49:06;5.82;;;3.63;;
21170;SDS011;10743;52.160;20.910;2022-08-01T02:51:36;7.57;;;3.72;;
21170;SDS011;10743;52.160;20.910;2022-08-01T02:54:03;8.88;;;4.00;;
21170;SDS011;10743;52.160;20.910;2022-08-01T02:56:33;7.20;;;3.35;;
21170;SDS011;10743;52.160;20.910;2022-08-01T02:59:05;7.50;;;4.22;;
21170;SDS011;10743;52.160;20.910;2022-08-01T03:01:39;11.85;;;5.88;;
21170;SDS011;10743;52.160;20.910;2022-08-01T03:04:09;18.08;;;6.00;;
21170;SDS011;10743;52.160;20.910;2022-08-01T03:06:38;12.85;;;4.90;;
21170;SDS011;10743;52.160;20.910;2022-08-01T03:09:09;10.70;;;4.47;;
21170;SDS011;10743;52.160;20.910;2022-08-01T03:11:38;9.85;;;4.10;;
21170;SDS011;10743;52.160;20.910;2022-08-01T03:14:08;11.15;;;5.20;;
21170;SDS011;10743;52.160;20.910;2022-08-01T03:16:38;14.52;;;5.93;;
21170;SDS011;10743;52.160;20.910;2022-08-01T03:19:07;19.42;;;7.07;;
21170;SDS011;10743;52.160;20.910;2022-08-01T03:21:38;21.27;;;8.70;;
21170;SDS011;10743;52.160;20.910;2022-08-01T03:24:07;17.42;;;7.55;;
21170;SDS011;10743;52.160;20.910;2022-08-01T03:26:36;14.95;;;5.68;;
21170;SDS011;10743;52.160;20.910;2022-08-01T03:29:06;15.80;;;5.10;;
21170;SDS011;10743;52.160;20.910;2022-08-01T03:31:39;10.70;;;5.97;;
21170;SDS011;10743;52.160;20.910;2022-08-01T03:34:10;12.35;;;5.78;;
21170;SDS011;10743;52.160;20.910;2022-08-01T03:36:41;12.15;;;5.28;;
21170;SDS011;10743;52.160;20.910;2022-08-01T03:39:16;12.40;;;6.93;;
21170;SDS011;10743;52.160;20.910;2022-08-01T03:41:47;12.60;;;6.03;;
21170;SDS011;10743;52.160;20.910;2022-08-01T03:44:22;14.27;;;5.60;;
21170;SDS011;10743;52.160;20.910;2022-08-01T03:46:58;13.07;;;6.05;;
21170;SDS011;10743;52.160;20.910;2022-08-01T03:49:29;9.27;;;5.60;;
21170;SDS011;10743;52.160;20.910;2022-08-01T03:52:03;17.33;;;7.10;;
21170;SDS011;10743;52.160;20.910;2022-08-01T03:54:35;16.25;;;6.47;;
21170;SDS011;10743;52.160;20.910;2022-08-01T03:57:06;13.23;;;6.30;;
21170;SDS011;10743;52.160;20.910;2022-08-01T03:59:53;18.17;;;6.82;;
21170;SDS011;10743;52.160;20.910;2022-08-01T04:02:24;12.30;;;5.63;;
21170;SDS011;10743;52.160;20.910;2022-08-01T04:04:53;14.10;;;5.90;;
21170;SDS011;10743;52.160;20.910;2022-08-01T04:07:25;15.73;;;6.03;;
21170;SDS011;10743;52.160;20.910;2022-08-01T04:09:54;17.77;;;6.30;;
21170;SDS011;10743;52.160;20.910;2022-08-01T04:12:22;15.70;;;7.80;;
21170;SDS011;10743;52.160;20.910;2022-08-01T04:14:49;12.98;;;5.65;;
21170;SDS011;10743;52.160;20.910;2022-08-01T04:17:16;9.02;;;5.18;;
21170;SDS011;10743;52.160;20.910;2022-08-01T04:19:43;9.10;;;5.18;;
21170;SDS011;10743;52.160;20.910;2022-08-01T04:22:11;8.98;;;4.97;;
21170;SDS011;10743;52.160;20.910;2022-08-01T04:24:41;8.88;;;5.30;;
21170;SDS011;10743;52.160;20.910;2022-08-01T04:27:22;9.25;;;5.65;;
21170;SDS011;10743;52.160;20.910;2022-08-01T04:30:15;8.15;;;5.00;;
21170;SDS011;10743;52.160;20.910;2022-08-01T04:32:47;11.52;;;5.55;;
21170;SDS011;10743;52.160;20.910;2022-08-01T04:35:16;9.00;;;4.57;;
21170;SDS011;10743;52.160;20.910;2022-08-01T04:38:05;6.50;;;4.30;;
21170;SDS011;10743;52.160;20.910;2022-08-01T04:40:35;7.00;;;4.22;;
21170;SDS011;10743;52.160;20.910;2022-08-01T04:43:03;12.00;;;5.72;;
21170;SDS011;10743;52.160;20.910;2022-08-01T04:45:32;9.57;;;4.10;;
21170;SDS011;10743;52.160;20.910;2022-08-01T04:48:00;15.23;;;6.15;;
21170;SDS011;10743;52.160;20.910;2022-08-01T04:50:34;15.00;;;7.13;;
21170;SDS011;10743;52.160;20.910;2022-08-01T04:53:02;19.65;;;7.40;;
21170;SDS011;10743;52.160;20.910;2022-08-01T04:55:29;11.73;;;5.80;;
21170;SDS011;10743;52.160;20.910;2022-08-01T04:57:57;16.80;;;7.93;;
21170;SDS011;10743;52.160;20.910;2022-08-01T05:00:25;9.25;;;4.90;;
21170;SDS011;10743;52.160;20.910;2022-08-01T05:02:52;18.33;;;7.35;;
21170;SDS011;10743;52.160;20.910;2022-08-01T05:05:19;33.95;;;12.55;;
21170;SDS011;10743;52.160;20.910;2022-08-01T05:07:47;11.20;;;6.10;;
21170;SDS011;10743;52.160;20.910;2022-08-01T05:10:14;9.73;;;5.32;;
21170;SDS011;10743;52.160;20.910;2022-08-01T05:12:41;14.60;;;6.65;;
21170;SDS011;10743;52.160;20.910;2022-08-01T05:15:08;11.65;;;6.40;;
21170;SDS011;10743;52.160;20.910;2022-08-01T05:17:40;15.48;;;7.15;;
21170;SDS011;10743;52.160;20.910;2022-08-01T05:20:09;12.48;;;6.60;;
21170;SDS011;10743;52.160;20.910;2022-08-01T05:22:37;17.08;;;8.02;;
21170;SDS011;10743;52.160;20.910;2022-08-01T05:25:05;16.65;;;6.93;;
21170;SDS011;10743;52.160;20.910;2022-08-01T05:27:33;8.25;;;6.35;;
21170;SDS011;10743;52.160;20.910;2022-08-01T05:30:06;13.40;;;6.85;;
21170;SDS011;10743;52.160;20.910;2022-08-01T05:32:34;15.40;;;7.40;;
21170;SDS011;10743;52.160;20.910;2022-08-01T05:35:01;14.07;;;7.60;;
21170;SDS011;10743;52.160;20.910;2022-08-01T05:37:29;11.82;;;6.95;;
21170;SDS011;10743;52.160;20.910;2022-08-01T05:39:56;8.88;;;6.65;;
21170;SDS011;10743;52.160;20.910;2022-08-01T05:42:23;13.57;;;7.03;;
21170;SDS011;10743;52.160;20.910;2022-08-01T05:44:50;11.50;;;7.53;;
21170;SDS011;10743;52.160;20.910;2022-08-01T05:47:17;10.85;;;6.13;;
21170;SDS011;10743;52.160;20.910;2022-08-01T05:49:45;7.88;;;6.25;;
21170;SDS011;10743;52.160;20.910;2022-08-01T05:52:12;11.68;;;6.10;;
21170;SDS011;10743;52.160;20.910;2022-08-01T05:54:39;11.32;;;6.45;;
21170;SDS011;10743;52.160;20.910;2022-08-01T05:57:06;14.20;;;6.88;;
21170;SDS011;10743;52.160;20.910;2022-08-01T05:59:33;12.98;;;6.47;;
21170;SDS011;10743;52.160;20.910;2022-08-01T06:02:00;15.55;;;7.07;;
21170;SDS011;10743;52.160;20.910;2022-08-01T06:04:28;18.58;;;7.75;;
21170;SDS011;10743;52.160;20.910;2022-08-01T06:06:55;10.30;;;6.97;;
21170;SDS011;10743;52.160;20.910;2022-08-01T06:09:22;12.43;;;7.22;;
21170;SDS011;10743;52.160;20.910;2022-08-01T06:11:49;15.07;;;7.50;;
21170;SDS011;10743;52.160;20.910;2022-08-01T06:14:16;16.73;;;7.45;;
21170;SDS011;10743;52.160;20.910;2022-08-01T06:16:42;11.77;;;5.82;;
21170;SDS011;10743;52.160;20.910;2022-08-01T06:19:09;12.10;;;5.70;;
21170;SDS011;10743;52.160;20.910;2022-08-01T06:21:36;7.18;;;4.65;;
21170;SDS011;10743;52.160;20.910;2022-08-01T06:24:04;11.02;;;7.43;;
21170;SDS011;10743;52.160;20.910;2022-08-01T06:26:31;10.18;;;4.47;;
21170;SDS011;10743;52.160;20.910;2022-08-01T06:28:58;7.30;;;4.45;;
21170;SDS011;10743;52.160;20.910;2022-08-01T06:31:25;10.18;;;4.45;;
21170;SDS011;10743;52.160;20.910;2022-08-01T06:33:58;8.20;;;4.38;;
21170;SDS011;10743;52.160;20.910;2022-08-01T06:36:25;6.60;;;4.55;;
21170;SDS011;10743;52.160;20.910;2022-08-01T06:38:52;10.68;;;4.90;;
21170;SDS011;10743;52.160;20.910;2022-08-01T06:41:19;8.43;;;4.43;;
21170;SDS011;10743;52.160;20.910;2022-08-01T06:43:46;9.00;;;4.40;;
21170;SDS011;10743;52.160;20.910;2022-08-01T06:46:13;6.50;;;4.28;;
21170;SDS011;10743;52.160;20.910;2022-08-01T06:48:40;4.97;;;3.22;;
21170;SDS011;10743;52.160;20.910;2022-08-01T06:51:08;5.25;;;3.67;;
21170;SDS011;10743;52.160;20.910;2022-08-01T06:53:36;10.88;;;5.93;;
21170;SDS011;10743;52.160;20.910;2022-08-01T06:56:04;8.65;;;5.38;;
21170;SDS011;10743;52.160;20.910;2022-08-01T06:58:32;7.70;;;4.10;;
21170;SDS011;10743;52.160;20.910;2022-08-01T07:01:01;7.25;;;3.47;;
21170;SDS011;10743;52.160;20.910;2022-08-01T07:03:33;4.35;;;2.28;;
21170;SDS011;10743;52.160;20.910;2022-08-01T07:06:20;5.28;;;2.60;;
21170;SDS011;10743;52.160;20.910;2022-08-01T07:08:50;4.05;;;2.38;;
21170;SDS011;10743;52.160;20.910;2022-08-01T07:11:17;5.00;;;2.50;;
21170;SDS011;10743;52.160;20.910;2022-08-01T07:13:45;2.75;;;2.55;;
21170;SDS011;10743;52.160;20.910;2022-08-01T07:16:13;3.40;;;2.40;;
21170;SDS011;10743;52.160;20.910;2022-08-01T07:18:40;3.00;;;2.50;;
21170;SDS011;10743;52.160;20.910;2022-08-01T07:21:08;3.47;;;2.70;;
21170;SDS011;10743;52.160;20.910;2022-08-01T07:23:55;5.95;;;2.30;;
21170;SDS011;10743;52.160;20.910;2022-08-01T07:26:22;4.70;;;2.70;;
21170;SDS011;10743;52.160;20.910;2022-08-01T07:28:49;3.38;;;2.40;;
21170;SDS011;10743;52.160;20.910;2022-08-01T07:31:16;5.47;;;3.05;;
21170;SDS011;10743;52.160;20.910;2022-08-01T07:33:43;3.17;;;2.22;;
21170;SDS011;10743;52.160;20.910;2022-08-01T07:36:14;3.70;;;2.47;;
21170;SDS011;10743;52.160;20.910;2022-08-01T07:38:45;8.63;;;4.07;;
21170;SDS011;10743;52.160;20.910;2022-08-01T07:41:12;8.77;;;2.92;;
21170;SDS011;10743;52.160;20.910;2022-08-01T07:43:40;2.65;;;2.33;;
21170;SDS011;10743;52.160;20.910;2022-08-01T07:46:19;9.13;;;2.80;;
21170;SDS011;10743;52.160;20.910;2022-08-01T07:48:46;5.22;;;3.75;;
21170;SDS011;10743;52.160;20.910;2022-08-01T07:51:14;4.38;;;2.60;;
21170;SDS011;10743;52.160;20.910;2022-08-01T07:53:41;3.72;;;2.00;;
21170;SDS011;10743;52.160;20.910;2022-08-01T07:56:08;6.53;;;2.00;;
21170;SDS011;10743;52.160;20.910;2022-08-01T07:58:35;2.80;;;2.00;;
21170;SDS011;10743;52.160;20.910;2022-08-01T08:01:04;3.92;;;2.30;;
21170;SDS011;10743;52.160;20.910;2022-08-01T08:03:31;5.20;;;3.15;;
21170;SDS011;10743;52.160;20.910;2022-08-01T08:05:58;3.92;;;2.35;;
21170;SDS011;10743;52.160;20.910;2022-08-01T08:08:26;2.97;;;2.13;;
21170;SDS011;10743;52.160;20.910;2022-08-01T08:10:53;3.50;;;2.25;;
21170;SDS011;10743;52.160;20.910;2022-08-01T08:13:21;4.25;;;2.30;;
21170;SDS011;10743;52.160;20.910;2022-08-01T08:15:48;3.22;;;2.25;;
21170;SDS011;10743;52.160;20.910;2022-08-01T08:18:15;5.15;;;2.42;;
21170;SDS011;10743;52.160;20.910;2022-08-01T08:20:42;4.70;;;2.65;;
21170;SDS011;10743;52.160;20.910;2022-08-01T08:23:10;3.42;;;2.30;;
21170;SDS011;10743;52.160;20.910;2022-08-01T08:26:09;2.25;;;1.90;;
21170;SDS011;10743;52.160;20.910;2022-08-01T08:28:37;6.25;;;2.50;;
21170;SDS011;10743;52.160;20.910;2022-08-01T08:31:06;1.85;;;1.60;;
21170;SDS011;10743;52.160;20.910;2022-08-01T08:33:51;2.10;;;1.65;;
21170;SDS011;10743;52.160;20.910;2022-08-01T08:36:18;3.33;;;1.90;;
21170;SDS011;10743;52.160;20.910;2022-08-01T08:38:45;6.65;;;2.47;;
21170;SDS011;10743;52.160;20.910;2022-08-01T08:41:12;5.35;;;2.40;;
21170;SDS011;10743;52.160;20.910;2022-08-01T08:43:46;4.40;;;2.30;;
21170;SDS011;10743;52.160;20.910;2022-08-01T08:46:13;5.53;;;2.90;;
21170;SDS011;10743;52.160;20.910;2022-08-01T08:48:41;4.57;;;2.67;;
21170;SDS011;10743;52.160;20.910;2022-08-01T08:51:08;4.22;;;2.15;;
21170;SDS011;10743;52.160;20.910;2022-08-01T08:53:40;4.82;;;1.98;;
21170;SDS011;10743;52.160;20.910;2022-08-01T08:56:11;3.97;;;1.90;;
21170;SDS011;10743;52.160;20.910;2022-08-01T08:58:43;1.65;;;1.55;;
21170;SDS011;10743;52.160;20.910;2022-08-01T09:01:11;4.70;;;1.63;;
21170;SDS011;10743;52.160;20.910;2022-08-01T09:03:39;7.32;;;2.80;;
21170;SDS011;10743;52.160;20.910;2022-08-01T09:06:07;4.50;;;1.52;;
21170;SDS011;10743;52.160;20.910;2022-08-01T09:08:34;1.50;;;1.40;;
21170;SDS011;10743;52.160;20.910;2022-08-01T09:11:02;3.10;;;1.90;;
21170;SDS011;10743;52.160;20.910;2022-08-01T09:13:29;3.75;;;1.65;;
21170;SDS011;10743;52.160;20.910;2022-08-01T09:15:56;2.78;;;1.55;;
21170;SDS011;10743;52.160;20.910;2022-08-01T09:18:38;1.83;;;1.50;;
21170;SDS011;10743;52.160;20.910;2022-08-01T09:21:19;6.45;;;2.30;;
21170;SDS011;10743;52.160;20.910;2022-08-01T09:23:50;4.75;;;2.95;;
21170;SDS011;10743;52.160;20.910;2022-08-01T09:26:30;3.50;;;2.30;;
21170;SDS011;10743;52.160;20.910;2022-08-01T09:29:01;2.05;;;1.77;;
21170;SDS011;10743;52.160;20.910;2022-08-01T09:31:39;2.78;;;1.77;;
21170;SDS011;10743;52.160;20.910;2022-08-01T09:34:13;2.70;;;1.75;;
21170;SDS011;10743;52.160;20.910;2022-08-01T09:36:54;2.63;;;1.70;;
21170;SDS011;10743;52.160;20.910;2022-08-01T09:39:31;2.20;;;1.63;;
21170;SDS011;10743;52.160;20.910;2022-08-01T09:42:23;4.43;;;2.15;;
21170;SDS011;10743;52.160;20.910;2022-08-01T09:44:54;4.15;;;2.05;;
21170;SDS011;10743;52.160;20.910;2022-08-01T09:47:36;7.38;;;3.33;;
21170;SDS011;10743;52.160;20.910;2022-08-01T09:50:09;5.03;;;2.40;;
21170;SDS011;10743;52.160;20.910;2022-08-01T09:52:36;3.15;;;2.00;;
21170;SDS011;10743;52.160;20.910;2022-08-01T09:55:06;4.47;;;2.25;;
21170;SDS011;10743;52.160;20.910;2022-08-01T09:57:34;4.22;;;2.45;;
21170;SDS011;10743;52.160;20.910;2022-08-01T10:00:03;3.67;;;2.00;;
21170;SDS011;10743;52.160;20.910;2022-08-01T10:02:40;2.72;;;2.05;;
21170;SDS011;10743;52.160;20.910;2022-08-01T10:05:09;3.13;;;1.70;;
21170;SDS011;10743;52.160;20.910;2022-08-01T10:07:56;2.15;;;1.90;;
21170;SDS011;10743;52.160;20.910;2022-08-01T10:10:33;2.35;;;1.90;;
21170;SDS011;10743;52.160;20.910;2022-08-01T10:13:02;3.67;;;2.42;;
21170;SDS011;10743;52.160;20.910;2022-08-01T10:15:30;3.15;;;2.53;;
21170;SDS011;10743;52.160;20.910;2022-08-01T10:18:04;3.83;;;1.90;;
21170;SDS011;10743;52.160;20.910;2022-08-01T10:20:51;4.05;;;1.90;;
21170;SDS011;10743;52.160;20.910;2022-08-01T10:23:22;4.18;;;2.03;;
21170;SDS011;10743;52.160;20.910;2022-08-01T10:26:06;5.65;;;2.40;;
21170;SDS011;10743;52.160;20.910;2022-08-01T10:28:35;4.13;;;2.13;;
21170;SDS011;10743;52.160;20.910;2022-08-01T10:31:05;3.45;;;2.20;;
21170;SDS011;10743;52.160;20.910;2022-08-01T10:33:38;4.97;;;3.13;;
21170;SDS011;10743;52.160;20.910;2022-08-01T10:36:18;2.92;;;2.30;;
21170;SDS011;10743;52.160;20.910;2022-08-01T10:38:51;2.35;;;1.98;;
21170;SDS011;10743;52.160;20.910;2022-08-01T10:41:20;3.78;;;2.58;;
21170;SDS011;10743;52.160;20.910;2022-08-01T10:43:48;5.80;;;2.80;;
21170;SDS011;10743;52.160;20.910;2022-08-01T10:46:15;5.57;;;2.80;;
21170;SDS011;10743;52.160;20.910;2022-08-01T10:48:50;3.55;;;2.33;;
21170;SDS011;10743;52.160;20.910;2022-08-01T10:51:30;5.30;;;2.63;;
21170;SDS011;10743;52.160;20.910;2022-08-01T10:54:19;2.97;;;2.45;;
21170;SDS011;10743;52.160;20.910;2022-08-01T10:56:52;4.05;;;2.35;;
21170;SDS011;10743;52.160;20.910;2022-08-01T10:59:23;4.25;;;3.05;;
21170;SDS011;10743;52.160;20.910;2022-08-01T11:02:13;3.75;;;2.20;;
21170;SDS011;10743;52.160;20.910;2022-08-01T11:05:01;3.92;;;3.00;;
21170;SDS011;10743;52.160;20.910;2022-08-01T11:10:25;3.00;;;2.45;;
21170;SDS011;10743;52.160;20.910;2022-08-01T11:13:00;3.40;;;2.50;;
21170;SDS011;10743;52.160;20.910;2022-08-01T11:15:29;3.20;;;2.60;;
21170;SDS011;10743;52.160;20.910;2022-08-01T11:17:57;4.03;;;2.60;;
21170;SDS011;10743;52.160;20.910;2022-08-01T11:20:28;6.13;;;3.03;;
21170;SDS011;10743;52.160;20.910;2022-08-01T11:28:24;6.30;;;4.10;;
21170;SDS011;10743;52.160;20.910;2022-08-01T11:38:37;5.55;;;3.40;;
21170;SDS011;10743;52.160;20.910;2022-08-01T11:41:25;4.47;;;3.63;;
21170;SDS011;10743;52.160;20.910;2022-08-01T11:44:03;4.15;;;3.72;;
21170;SDS011;10743;52.160;20.910;2022-08-01T11:49:27;5.10;;;3.70;;
21170;SDS011;10743;52.160;20.910;2022-08-01T11:52:16;4.53;;;3.75;;
21170;SDS011;10743;52.160;20.910;2022-08-01T11:54:54;7.10;;;3.72;;
21170;SDS011;10743;52.160;20.910;2022-08-01T11:57:25;5.15;;;4.15;;
21170;SDS011;10743;52.160;20.910;2022-08-01T12:00:00;5.05;;;3.50;;
21170;SDS011;10743;52.160;20.910;2022-08-01T12:02:44;3.55;;;3.15;;
21170;SDS011;10743;52.160;20.910;2022-08-01T12:05:13;4.75;;;3.70;;
21170;SDS011;10743;52.160;20.910;2022-08-01T12:07:45;7.10;;;4.18;;
21170;SDS011;10743;52.160;20.910;2022-08-01T12:10:18;9.77;;;5.13;;
21170;SDS011;10743;52.160;20.910;2022-08-01T12:12:51;5.57;;;3.38;;
21170;SDS011;10743;52.160;20.910;2022-08-01T12:15:29;4.45;;;3.25;;
21170;SDS011;10743;52.160;20.910;2022-08-01T12:17:59;5.22;;;3.67;;
21170;SDS011;10743;52.160;20.910;2022-08-01T12:23:02;4.95;;;3.00;;
21170;SDS011;10743;52.160;20.910;2022-08-01T12:25:35;6.15;;;3.10;;
21170;SDS011;10743;52.160;20.910;2022-08-01T12:28:03;8.90;;;4.47;;
21170;SDS011;10743;52.160;20.910;2022-08-01T12:30:33;3.97;;;3.40;;
21170;SDS011;10743;52.160;20.910;2022-08-01T12:33:03;3.72;;;2.92;;
21170;SDS011;10743;52.160;20.910;2022-08-01T12:35:36;3.30;;;2.78;;
21170;SDS011;10743;52.160;20.910;2022-08-01T12:38:14;5.38;;;3.13;;
21170;SDS011;10743;52.160;20.910;2022-08-01T12:40:48;9.15;;;2.80;;
21170;SDS011;10743;52.160;20.910;2022-08-01T12:43:19;6.70;;;2.95;;
21170;SDS011;10743;52.160;20.910;2022-08-01T12:45:54;3.92;;;2.50;;
21170;SDS011;10743;52.160;20.910;2022-08-01T12:48:26;4.78;;;3.10;;
21170;SDS011;10743;52.160;20.910;2022-08-01T12:50:54;3.25;;;2.60;;
21170;SDS011;10743;52.160;20.910;2022-08-01T12:53:24;4.35;;;2.17;;
21170;SDS011;10743;52.160;20.910;2022-08-01T12:56:06;6.43;;;2.75;;
21170;SDS011;10743;52.160;20.910;2022-08-01T12:58:37;6.63;;;2.97;;
21170;SDS011;10743;52.160;20.910;2022-08-01T13:01:08;4.18;;;2.50;;
21170;SDS011;10743;52.160;20.910;2022-08-01T13:03:38;4.60;;;3.40;;
21170;SDS011;10743;52.160;20.910;2022-08-01T13:06:12;3.67;;;2.45;;
21170;SDS011;10743;52.160;20.910;2022-08-01T13:08:42;7.78;;;2.90;;
21170;SDS011;10743;52.160;20.910;2022-08-01T13:11:11;5.45;;;2.55;;
21170;SDS011;10743;52.160;20.910;2022-08-01T13:13:48;3.83;;;2.40;;
21170;SDS011;10743;52.160;20.910;2022-08-01T13:16:18;2.88;;;2.45;;
21170;SDS011;10743;52.160;20.910;2022-08-01T13:18:59;4.80;;;2.10;;
21170;SDS011;10743;52.160;20.910;2022-08-01T13:21:30;2.13;;;1.92;;
21170;SDS011;10743;52.160;20.910;2022-08-01T13:24:22;3.40;;;1.60;;
21170;SDS011;10743;52.160;20.910;2022-08-01T13:27:01;3.40;;;1.80;;
21170;SDS011;10743;52.160;20.910;2022-08-01T13:29:37;2.85;;;2.05;;
21170;SDS011;10743;52.160;20.910;2022-08-01T13:32:15;2.10;;;1.90;;
21170;SDS011;10743;52.160;20.910;2022-08-01T13:35:05;4.93;;;1.90;;
21170;SDS011;10743;52.160;20.910;2022-08-01T13:37:38;6.22;;;3.20;;
21170;SDS011;10743;52.160;20.910;2022-08-01T13:40:09;11.23;;;3.38;;
21170;SDS011;10743;52.160;20.910;2022-08-01T13:42:37;3.40;;;2.22;;
21170;SDS011;10743;52.160;20.910;2022-08-01T13:45:05;4.03;;;2.03;;
21170;SDS011;10743;52.160;20.910;2022-08-01T13:47:40;2.53;;;1.70;;
21170;SDS011;10743;52.160;20.910;2022-08-01T13:50:31;2.65;;;1.83;;
21170;SDS011;10743;52.160;20.910;2022-08-01T13:52:58;2.72;;;2.00;;
21170;SDS011;10743;52.160;20.910;2022-08-01T13:55:25;4.60;;;2.22;;
21170;SDS011;10743;52.160;20.910;2022-08-01T13:57:59;7.38;;;2.97;;
21170;SDS011;10743;52.160;20.910;2022-08-01T14:00:26;4.95;;;2.20;;
21170;SDS011;10743;52.160;20.910;2022-08-01T14:02:53;3.70;;;2.20;;
21170;SDS011;10743;52.160;20.910;2022-08-01T14:05:20;2.50;;;2.10;;
21170;SDS011;10743;52.160;20.910;2022-08-01T14:07:48;2.80;;;2.00;;
21170;SDS011;10743;52.160;20.910;2022-08-01T14:10:15;1.85;;;1.60;;
21170;SDS011;10743;52.160;20.910;2022-08-01T14:12:46;6.88;;;2.38;;
21170;SDS011;10743;52.160;20.910;2022-08-01T14:15:14;2.95;;;2.00;;
21170;SDS011;10743;52.160;20.910;2022-08-01T14:18:02;3.95;;;2.83;;
21170;SDS011;10743;52.160;20.910;2022-08-01T14:20:31;5.55;;;3.58;;
21170;SDS011;10743;52.160;20.910;2022-08-01T14:22:59;4.57;;;3.10;;
21170;SDS011;10743;52.160;20.910;2022-08-01T14:25:26;5.15;;;2.90;;
21170;SDS011;10743;52.160;20.910;2022-08-01T14:28:13;3.42;;;2.25;;
21170;SDS011;10743;52.160;20.910;2022-08-01T14:30:40;2.58;;;1.92;;
21170;SDS011;10743;52.160;20.910;2022-08-01T14:33:11;2.50;;;2.30;;
21170;SDS011;10743;52.160;20.910;2022-08-01T14:35:39;4.80;;;2.60;;
21170;SDS011;10743;52.160;20.910;2022-08-01T14:38:27;5.43;;;2.92;;
21170;SDS011;10743;52.160;20.910;2022-08-01T14:40:58;4.45;;;2.30;;
21170;SDS011;10743;52.160;20.910;2022-08-01T14:43:26;4.53;;;3.05;;
21170;SDS011;10743;52.160;20.910;2022-08-01T14:45:59;9.10;;;4.55;;
21170;SDS011;10743;52.160;20.910;2022-08-01T14:48:27;2.75;;;2.40;;
21170;SDS011;10743;52.160;20.910;2022-08-01T14:50:55;4.55;;;3.00;;
21170;SDS011;10743;52.160;20.910;2022-08-01T14:53:23;3.13;;;2.10;;
21170;SDS011;10743;52.160;20.910;2022-08-01T14:55:50;5.07;;;1.92;;
21170;SDS011;10743;52.160;20.910;2022-08-01T14:58:17;4.45;;;2.50;;
21170;SDS011;10743;52.160;20.910;2022-08-01T15:00:44;2.17;;;1.98;;
21170;SDS011;10743;52.160;20.910;2022-08-01T15:03:12;6.60;;;2.25;;
21170;SDS011;10743;52.160;20.910;2022-08-01T15:05:39;4.68;;;2.10;;
21170;SDS011;10743;52.160;20.910;2022-08-01T15:08:06;3.92;;;2.20;;
21170;SDS011;10743;52.160;20.910;2022-08-01T15:10:33;2.33;;;1.88;;
21170;SDS011;10743;52.160;20.910;2022-08-01T15:13:00;6.30;;;3.03;;
21170;SDS011;10743;52.160;20.910;2022-08-01T15:15:28;3.65;;;2.50;;
21170;SDS011;10743;52.160;20.910;2022-08-01T15:17:55;2.97;;;2.50;;
21170;SDS011;10743;52.160;20.910;2022-08-01T15:20:23;6.32;;;2.60;;
21170;SDS011;10743;52.160;20.910;2022-08-01T15:22:51;3.22;;;2.00;;
21170;SDS011;10743;52.160;20.910;2022-08-01T15:25:19;5.03;;;3.05;;
21170;SDS011;10743;52.160;20.910;2022-08-01T15:27:46;5.07;;;2.40;;